Time;durP1;ratioP1;P1;durP2;ratioP2;P2;SDS_P1;SDS_P2;PMS_P1;PMS_P2;Temp;Humidity;BMP_temperature;BMP_pressure;BME280_temperature;BME280_humidity;BME280_pressure;Samples;Min_cycle;Max_cycle;Signal;HPM_P1;HPM_P2
2023/10/29 00:01:19;;;;;;;0.20;0.00;;;;;;;;;;4970824;28;20470;-85
2023/10/29 00:03:45;;;;;;;0.20;0.10;;;;;;;;;;4967200;28;20045;-87
2023/10/29 00:06:11;;;;;;;0.20;0.10;;;;;;;;;;4964869;28;20037;-86
2023/10/29 00:08:37;;;;;;;0.20;0.10;;;;;;;;;;4966927;28;20209;-85
2023/10/29 00:11:07;;;;;;;0.20;0.10;;;;;;;;;;4967051;28;20050;-84
2023/10/29 00:13:33;;;;;;;0.20;0.10;;;;;;;;;;4974439;28;20188;-83
2023/10/29 00:16:01;;;;;;;0.20;0.00;;;;;;;;;;4984288;28;20531;-85
2023/10/29 00:18:28;;;;;;;0.20;0.05;;;;;;;;;;4985337;28;20616;-84
2023/10/29 00:20:54;;;;;;;0.20;0.00;;;;;;;;;;4972621;28;20042;-84
2023/10/29 00:23:20;;;;;;;0.20;0.00;;;;;;;;;;4965279;28;20519;-85
2023/10/29 00:25:46;;;;;;;0.20;0.08;;;;;;;;;;4968136;28;20039;-84
2023/10/29 00:28:12;;;;;;;0.20;0.00;;;;;;;;;;4975516;28;20093;-85
2023/10/29 00:30:38;;;;;;;0.20;0.10;;;;;;;;;;4967608;28;20133;-83
2023/10/29 00:33:04;;;;;;;0.20;0.00;;;;;;;;;;4959166;28;20097;-84
2023/10/29 00:35:30;;;;;;;0.20;0.10;;;;;;;;;;4966867;28;20386;-83
2023/10/29 00:37:56;;;;;;;0.20;0.10;;;;;;;;;;4973201;28;20073;-84
2023/10/29 00:40:22;;;;;;;0.40;0.10;;;;;;;;;;4984105;28;20077;-84
2023/10/29 00:42:48;;;;;;;0.20;0.00;;;;;;;;;;4964218;28;20121;-86
2023/10/29 00:45:14;;;;;;;0.20;0.00;;;;;;;;;;4964702;28;20626;-84
2023/10/29 00:47:41;;;;;;;0.20;0.10;;;;;;;;;;4970043;28;20046;-84
2023/10/29 00:50:07;;;;;;;0.20;0.10;;;;;;;;;;4966775;28;20535;-86
2023/10/29 00:52:36;;;;;;;0.20;0.10;;;;;;;;;;4978161;28;20054;-86
2023/10/29 00:55:03;;;;;;;0.20;0.00;;;;;;;;;;4967362;28;20046;-84
2023/10/29 00:57:30;;;;;;;0.20;0.00;;;;;;;;;;4964088;28;20052;-85
2023/10/29 00:59:56;;;;;;;0.20;0.10;;;;;;;;;;4965561;28;20478;-84
2023/10/29 01:02:22;;;;;;;0.20;0.10;;;;;;;;;;4965436;28;20044;-86
2023/10/29 01:04:48;;;;;;;0.20;0.10;;;;;;;;;;4967717;28;20458;-87
2023/10/29 01:07:14;;;;;;;0.20;0.00;;;;;;;;;;4971979;28;20108;-87
2023/10/29 01:09:42;;;;;;;0.20;0.13;;;;;;;;;;4964246;28;20121;-87
2023/10/29 01:12:15;;;;;;;0.20;0.20;;;;;;;;;;4983130;28;20472;-85
2023/10/29 01:14:42;;;;;;;0.20;0.00;;;;;;;;;;4964102;28;20047;-85
2023/10/29 01:17:13;;;;;;;0.20;0.10;;;;;;;;;;4965249;28;20065;-86
2023/10/29 01:19:47;;;;;;;0.20;0.10;;;;;;;;;;4966705;28;20042;-85
2023/10/29 01:22:13;;;;;;;0.20;0.10;;;;;;;;;;4983578;28;20053;-85
2023/10/29 01:24:46;;;;;;;0.20;0.08;;;;;;;;;;4968025;28;20118;-86
2023/10/29 01:27:17;;;;;;;0.20;0.00;;;;;;;;;;4964238;28;20046;-86
2023/10/29 01:29:43;;;;;;;0.20;0.00;;;;;;;;;;4967931;28;20042;-84
2023/10/29 01:32:12;;;;;;;0.20;0.08;;;;;;;;;;4963593;28;20070;-86
2023/10/29 01:34:50;;;;;;;0.20;0.00;;;;;;;;;;4961132;28;20042;-86
2023/10/29 01:37:16;;;;;;;0.20;0.00;;;;;;;;;;4966117;28;23254;-85
2023/10/29 01:39:45;;;;;;;0.20;0.00;;;;;;;;;;4981293;28;20096;-86
2023/10/29 01:42:11;;;;;;;0.20;0.10;;;;;;;;;;4962709;28;20051;-84
2023/10/29 01:44:38;;;;;;;0.32;0.10;;;;;;;;;;4981208;28;20035;-86
2023/10/29 01:47:11;;;;;;;0.20;0.00;;;;;;;;;;4963063;28;20046;-87
2023/10/29 01:50:04;;;;;;;0.20;0.03;;;;;;;;;;4980736;28;20046;-87
2023/10/29 01:52:32;;;;;;;0.20;0.10;;;;;;;;;;4968422;28;20043;-84
2023/10/29 01:55:22;;;;;;;0.30;0.20;;;;;;;;;;4967747;28;20105;-87
2023/10/29 01:57:56;;;;;;;0.20;0.10;;;;;;;;;;4964093;28;20051;-85
2023/10/29 02:00:34;;;;;;;0.20;0.10;;;;;;;;;;4959732;28;20545;-87
2023/10/29 02:03:02;;;;;;;0.20;0.05;;;;;;;;;;4965253;28;20122;-86
2023/10/29 02:08:28;;;;;;;0.20;0.00;;;;;;;;;;4962976;28;20089;-86
2023/10/29 02:11:10;;;;;;;0.20;0.10;;;;;;;;;;4986665;23;20053;-88
2023/10/29 02:13:46;;;;;;;0.20;0.10;;;;;;;;;;4986803;28;20042;-84
2023/10/29 02:19:26;;;;;;;0.20;0.00;;;;;;;;;;4981413;28;20034;-87
2023/10/29 02:22:04;;;;;;;0.20;0.10;;;;;;;;;;4972036;28;20042;-86
2023/10/29 02:24:39;;;;;;;0.40;0.25;;;;;;;;;;4984477;28;20046;-88
2023/10/29 02:30:24;;;;;;;0.20;0.00;;;;;;;;;;5064819;22;20054;-85
2023/10/29 02:32:56;;;;;;;0.20;0.00;;;;;;;;;;4987096;28;20046;-89
2023/10/29 02:35:28;;;;;;;0.20;0.00;;;;;;;;;;4991140;28;20034;-88
2023/10/29 02:37:57;;;;;;;0.20;0.10;;;;;;;;;;4984693;28;20042;-87
2023/10/29 02:40:28;;;;;;;0.20;0.10;;;;;;;;;;4981252;28;20095;-87
2023/10/29 02:46:07;;;;;;;0.20;0.00;;;;;;;;;;4980627;28;20056;-85
2023/10/29 02:48:37;;;;;;;0.20;0.10;;;;;;;;;;5027396;28;20135;-88
2023/10/29 02:51:11;;;;;;;0.35;0.20;;;;;;;;;;5011932;28;20045;-87
2023/10/29 02:53:52;;;;;;;0.20;0.10;;;;;;;;;;5013576;28;20449;-88
2023/10/29 02:56:34;;;;;;;;;;;;;;;;;;;;;
2023/10/29 02:59:29;;;;;;;0.20;0.05;;;;;;;;;;5020524;28;20034;-87
2023/10/29 03:02:30;;;;;;;0.77;0.40;;;;;;;;;;5020637;28;20048;-89
2023/10/29 03:05:14;;;;;;;0.20;0.00;;;;;;;;;;5026088;28;20349;-85
2023/10/29 03:10:43;;;;;;;0.20;0.10;;;;;;;;;;5014784;28;20055;-85
2023/10/29 03:13:20;;;;;;;0.28;0.28;;;;;;;;;;5005683;28;20153;-90
2023/10/29 03:15:59;;;;;;;0.20;0.10;;;;;;;;;;5022897;28;20048;-84
2023/10/29 03:21:36;;;;;;;0.20;0.10;;;;;;;;;;5047504;22;20599;-85
2023/10/29 03:24:07;;;;;;;0.20;0.10;;;;;;;;;;5012644;28;20052;-89
2023/10/29 03:26:33;;;;;;;0.20;0.10;;;;;;;;;;5011597;28;20049;-87
2023/10/29 03:29:05;;;;;;;0.20;0.10;;;;;;;;;;5010395;28;20095;-86
2023/10/29 03:31:32;;;;;;;0.20;0.10;;;;;;;;;;4994553;28;20037;-85
2023/10/29 03:33:58;;;;;;;0.50;0.22;;;;;;;;;;5004638;28;20033;-87
2023/10/29 03:36:24;;;;;;;0.30;0.20;;;;;;;;;;4989511;28;20046;-85
2023/10/29 03:38:50;;;;;;;0.20;0.10;;;;;;;;;;4993229;28;20080;-82
2023/10/29 03:41:31;;;;;;;0.20;0.10;;;;;;;;;;5017609;28;20056;-84
2023/10/29 03:44:00;;;;;;;0.30;0.30;;;;;;;;;;5004959;28;20046;-85
2023/10/29 03:46:34;;;;;;;0.20;0.10;;;;;;;;;;4984837;28;20053;-87
2023/10/29 03:49:08;;;;;;;0.20;0.00;;;;;;;;;;4978231;28;20046;-85
2023/10/29 03:51:43;;;;;;;0.20;0.00;;;;;;;;;;5000761;28;20092;-85
2023/10/29 03:54:14;;;;;;;0.20;0.10;;;;;;;;;;4993250;28;20049;-86
2023/10/29 03:56:40;;;;;;;0.20;0.00;;;;;;;;;;5003398;28;20041;-84
2023/10/29 03:59:06;;;;;;;0.20;0.10;;;;;;;;;;5002773;28;20064;-86
2023/10/29 04:01:33;;;;;;;0.20;0.10;;;;;;;;;;5004915;28;20068;-85
2023/10/29 04:04:06;;;;;;;0.20;0.00;;;;;;;;;;4983876;28;20442;-86
2023/10/29 04:06:44;;;;;;;0.20;0.10;;;;;;;;;;5003271;28;20116;-86
2023/10/29 04:09:35;;;;;;;0.43;0.20;;;;;;;;;;5002619;28;20046;-85
2023/10/29 04:12:05;;;;;;;0.20;0.00;;;;;;;;;;4991689;28;20045;-86
2023/10/29 04:14:34;;;;;;;0.20;0.10;;;;;;;;;;4985611;28;20042;-84
2023/10/29 04:17:07;;;;;;;0.20;0.05;;;;;;;;;;4992212;28;20418;-84
2023/10/29 04:19:33;;;;;;;0.20;0.10;;;;;;;;;;4999461;28;20042;-83
2023/10/29 04:22:06;;;;;;;0.20;0.00;;;;;;;;;;4991949;28;20041;-84
2023/10/29 04:24:38;;;;;;;0.20;0.00;;;;;;;;;;5003701;28;20451;-86
2023/10/29 04:27:09;;;;;;;0.20;0.03;;;;;;;;;;4991480;28;20049;-83
2023/10/29 04:29:41;;;;;;;0.20;0.10;;;;;;;;;;4998488;28;20485;-85
2023/10/29 04:32:10;;;;;;;0.20;0.10;;;;;;;;;;4989460;28;20045;-84
2023/10/29 04:34:42;;;;;;;0.20;0.00;;;;;;;;;;4982522;28;20041;-83
2023/10/29 04:37:08;;;;;;;0.20;0.00;;;;;;;;;;4980068;28;20060;-85
2023/10/29 04:39:34;;;;;;;0.20;0.10;;;;;;;;;;5002230;28;20038;-87
2023/10/29 04:45:45;;;;;;;0.20;0.10;;;;;;;;;;4939846;28;20058;-86
2023/10/29 04:48:20;;;;;;;0.20;0.03;;;;;;;;;;4927875;28;20154;-85
2023/10/29 04:50:49;;;;;;;0.20;0.10;;;;;;;;;;4924499;29;20218;-84
2023/10/29 04:53:23;;;;;;;0.20;0.00;;;;;;;;;;4923215;28;20134;-87
2023/10/29 04:55:51;;;;;;;0.20;0.00;;;;;;;;;;4957038;28;20053;-84
2023/10/29 04:58:20;;;;;;;0.20;0.20;;;;;;;;;;4988469;28;20120;-85
2023/10/29 05:00:46;;;;;;;0.20;0.05;;;;;;;;;;4991619;28;20397;-87
2023/10/29 05:03:18;;;;;;;0.45;0.08;;;;;;;;;;4989700;28;20415;-85
2023/10/29 05:05:44;;;;;;;0.20;0.00;;;;;;;;;;5000484;28;20049;-85
2023/10/29 05:08:11;;;;;;;0.20;0.10;;;;;;;;;;4990095;28;20036;-85
2023/10/29 05:10:41;;;;;;;0.20;0.00;;;;;;;;;;4983909;28;20033;-86
2023/10/29 05:13:07;;;;;;;0.20;0.00;;;;;;;;;;4984142;28;20042;-85
2023/10/29 05:15:38;;;;;;;0.20;0.10;;;;;;;;;;5003040;28;20037;-85
2023/10/29 05:18:25;;;;;;;0.20;0.10;;;;;;;;;;4985478;28;20041;-86
2023/10/29 05:20:52;;;;;;;0.20;0.08;;;;;;;;;;4982957;28;20037;-86
2023/10/29 05:23:40;;;;;;;0.20;0.10;;;;;;;;;;4995861;28;20049;-85
2023/10/29 05:26:22;;;;;;;0.20;0.03;;;;;;;;;;4989489;28;20073;-84
2023/10/29 05:28:49;;;;;;;0.20;0.00;;;;;;;;;;4991046;28;20037;-84
2023/10/29 05:31:16;;;;;;;0.20;0.00;;;;;;;;;;4987779;28;20069;-83
2023/10/29 05:33:48;;;;;;;0.20;0.10;;;;;;;;;;4989415;28;20087;-89
2023/10/29 05:36:14;;;;;;;0.20;0.10;;;;;;;;;;4984023;28;20053;-84
2023/10/29 05:38:44;;;;;;;0.20;0.00;;;;;;;;;;4984012;28;20510;-85
2023/10/29 05:41:17;;;;;;;0.20;0.00;;;;;;;;;;5017048;22;20045;-83
2023/10/29 05:43:43;;;;;;;0.20;0.10;;;;;;;;;;4990785;28;20117;-83
2023/10/29 05:46:12;;;;;;;0.20;0.00;;;;;;;;;;5009538;28;20513;-84
2023/10/29 05:48:39;;;;;;;0.20;0.00;;;;;;;;;;5004641;28;20445;-84
2023/10/29 05:51:05;;;;;;;0.20;0.05;;;;;;;;;;4994143;28;20037;-83
2023/10/29 05:53:31;;;;;;;0.20;0.03;;;;;;;;;;5016363;28;20038;-83
2023/10/29 05:55:57;;;;;;;0.20;0.00;;;;;;;;;;4994742;28;20129;-83
2023/10/29 05:58:24;;;;;;;0.20;0.00;;;;;;;;;;5002758;28;20494;-81
2023/10/29 06:00:50;;;;;;;0.20;0.00;;;;;;;;;;5003861;28;20110;-84
2023/10/29 06:03:16;;;;;;;0.20;0.00;;;;;;;;;;4993417;28;20060;-83
2023/10/29 06:05:42;;;;;;;0.20;0.00;;;;;;;;;;5007160;28;20107;-84
2023/10/29 06:08:08;;;;;;;0.20;0.10;;;;;;;;;;5012063;28;20106;-82
2023/10/29 06:10:34;;;;;;;0.20;0.10;;;;;;;;;;4998408;28;20538;-85
2023/10/29 06:13:00;;;;;;;0.20;0.00;;;;;;;;;;5013325;28;20041;-81
2023/10/29 06:15:27;;;;;;;0.20;0.10;;;;;;;;;;5009072;28;20064;-83
2023/10/29 06:17:56;;;;;;;0.20;0.10;;;;;;;;;;5012755;28;20115;-86
2023/10/29 06:20:27;;;;;;;0.20;0.10;;;;;;;;;;5012350;28;20053;-82
2023/10/29 06:22:53;;;;;;;0.20;0.03;;;;;;;;;;4999079;28;20441;-82
2023/10/29 06:25:22;;;;;;;0.20;0.10;;;;;;;;;;5014888;28;20087;-86
2023/10/29 06:27:48;;;;;;;0.20;0.00;;;;;;;;;;5017520;28;20033;-83
2023/10/29 06:30:14;;;;;;;0.30;0.30;;;;;;;;;;5014595;28;20037;-84
2023/10/29 06:32:40;;;;;;;0.20;0.10;;;;;;;;;;4996452;28;20053;-83
2023/10/29 06:35:07;;;;;;;0.20;0.00;;;;;;;;;;5002852;28;20570;-84
2023/10/29 06:37:33;;;;;;;0.20;0.10;;;;;;;;;;4995236;28;20491;-85
2023/10/29 06:39:59;;;;;;;0.20;0.00;;;;;;;;;;5001996;28;20397;-84
2023/10/29 06:42:25;;;;;;;0.20;0.00;;;;;;;;;;4995691;28;20037;-87
2023/10/29 06:44:51;;;;;;;0.20;0.10;;;;;;;;;;5010833;28;20042;-83
2023/10/29 06:47:17;;;;;;;0.20;0.10;;;;;;;;;;4991073;28;20041;-85
2023/10/29 06:49:49;;;;;;;0.20;0.10;;;;;;;;;;4992971;28;20095;-86
2023/10/29 06:52:15;;;;;;;0.20;0.00;;;;;;;;;;4990127;28;20041;-85
2023/10/29 06:54:41;;;;;;;0.20;0.10;;;;;;;;;;5008509;28;20517;-84
2023/10/29 06:57:08;;;;;;;0.30;0.10;;;;;;;;;;5008480;28;20041;-82
2023/10/29 06:59:34;;;;;;;0.20;0.05;;;;;;;;;;5007693;28;20046;-84
2023/10/29 07:02:00;;;;;;;0.20;0.00;;;;;;;;;;4999455;28;20037;-82
2023/10/29 07:04:26;;;;;;;0.20;0.00;;;;;;;;;;4992876;28;20053;-84
2023/10/29 07:06:53;;;;;;;0.20;0.00;;;;;;;;;;4995152;28;20167;-85
2023/10/29 07:09:19;;;;;;;0.20;0.10;;;;;;;;;;5007536;28;20509;-80
2023/10/29 07:11:45;;;;;;;0.20;0.10;;;;;;;;;;4992737;28;20048;-82
2023/10/29 07:14:12;;;;;;;0.20;0.10;;;;;;;;;;4994691;28;20045;-82
2023/10/29 07:16:38;;;;;;;0.20;0.10;;;;;;;;;;5001547;28;20046;-83
2023/10/29 07:19:04;;;;;;;0.20;0.10;;;;;;;;;;5007117;28;20044;-83
2023/10/29 07:21:30;;;;;;;0.20;0.05;;;;;;;;;;4998427;28;20128;-85
2023/10/29 07:23:57;;;;;;;0.20;0.10;;;;;;;;;;4989568;28;20060;-82
2023/10/29 07:26:23;;;;;;;0.20;0.00;;;;;;;;;;4994226;28;20163;-83
2023/10/29 07:28:49;;;;;;;8.02;0.85;;;;;;;;;;5006606;28;20552;-84
2023/10/29 07:31:15;;;;;;;0.20;0.00;;;;;;;;;;5006465;28;20064;-82
2023/10/29 07:33:41;;;;;;;0.20;0.00;;;;;;;;;;4994829;28;20446;-83
2023/10/29 07:36:07;;;;;;;0.20;0.00;;;;;;;;;;4996857;28;20048;-84
2023/10/29 07:38:36;;;;;;;0.20;0.10;;;;;;;;;;5003345;28;20049;-84
2023/10/29 07:41:02;;;;;;;0.20;0.00;;;;;;;;;;4999446;28;20041;-80
2023/10/29 07:43:28;;;;;;;0.30;0.10;;;;;;;;;;5003686;28;20069;-84
2023/10/29 07:46:01;;;;;;;0.20;0.10;;;;;;;;;;4994935;28;20073;-83
2023/10/29 07:48:30;;;;;;;0.20;0.00;;;;;;;;;;5025850;28;20038;-84
2023/10/29 07:50:56;;;;;;;0.20;0.00;;;;;;;;;;4989246;28;20095;-81
2023/10/29 07:53:23;;;;;;;0.20;0.00;;;;;;;;;;4991997;28;20534;-83
2023/10/29 07:55:50;;;;;;;0.20;0.00;;;;;;;;;;5005216;28;20313;-82
2023/10/29 07:58:16;;;;;;;0.20;0.10;;;;;;;;;;5000388;28;20583;-83
2023/10/29 08:00:42;;;;;;;0.20;0.10;;;;;;;;;;5004900;28;20038;-83
2023/10/29 08:03:08;;;;;;;0.20;0.10;;;;;;;;;;4993616;28;20037;-82
2023/10/29 08:05:34;;;;;;;0.82;0.57;;;;;;;;;;5011006;28;20133;-85
2023/10/29 08:08:01;;;;;;;0.20;0.10;;;;;;;;;;4991654;28;20096;-83
2023/10/29 08:10:27;;;;;;;0.20;0.00;;;;;;;;;;4992622;28;20494;-82
2023/10/29 08:12:53;;;;;;;0.20;0.00;;;;;;;;;;4987306;28;20087;-84
2023/10/29 08:15:19;;;;;;;0.20;0.00;;;;;;;;;;5006965;28;20041;-81
2023/10/29 08:17:46;;;;;;;0.20;0.10;;;;;;;;;;5000051;28;20045;-82
2023/10/29 08:20:12;;;;;;;0.20;0.10;;;;;;;;;;4999754;28;20084;-86
2023/10/29 08:22:38;;;;;;;0.20;0.00;;;;;;;;;;4990861;28;20048;-84
2023/10/29 08:25:04;;;;;;;0.25;0.22;;;;;;;;;;5005955;28;20045;-83
2023/10/29 08:27:30;;;;;;;0.20;0.05;;;;;;;;;;5008166;28;20042;-82
2023/10/29 08:29:56;;;;;;;0.20;0.03;;;;;;;;;;4986828;28;20040;-84
2023/10/29 08:32:22;;;;;;;0.20;0.10;;;;;;;;;;4995213;28;20044;-83
2023/10/29 08:34:48;;;;;;;0.20;0.10;;;;;;;;;;4993186;28;20038;-83
2023/10/29 08:37:17;;;;;;;0.20;0.00;;;;;;;;;;5002118;28;20053;-82
2023/10/29 08:39:43;;;;;;;0.20;0.00;;;;;;;;;;4992377;28;20525;-86
2023/10/29 08:42:10;;;;;;;0.20;0.03;;;;;;;;;;4991578;28;20037;-84
2023/10/29 08:44:36;;;;;;;0.20;0.03;;;;;;;;;;5008953;28;20049;-84
2023/10/29 08:47:02;;;;;;;0.20;0.10;;;;;;;;;;4994383;28;20048;-83
2023/10/29 08:49:28;;;;;;;0.20;0.10;;;;;;;;;;5007107;28;20080;-84
2023/10/29 08:51:55;;;;;;;0.20;0.00;;;;;;;;;;5007047;28;20049;-85
2023/10/29 08:54:23;;;;;;;0.20;0.00;;;;;;;;;;4991172;28;20038;-85
2023/10/29 08:56:49;;;;;;;0.20;0.10;;;;;;;;;;4989145;28;20694;-83
2023/10/29 08:59:15;;;;;;;0.20;0.00;;;;;;;;;;4991903;28;20505;-84
2023/10/29 09:01:41;;;;;;;0.20;0.10;;;;;;;;;;4993839;28;20041;-83
2023/10/29 09:04:08;;;;;;;0.20;0.00;;;;;;;;;;5003526;28;20037;-82
2023/10/29 09:06:37;;;;;;;0.22;0.10;;;;;;;;;;4994892;28;20567;-83
2023/10/29 09:09:03;;;;;;;0.20;0.00;;;;;;;;;;4999658;28;20056;-86
2023/10/29 09:11:29;;;;;;;0.20;0.00;;;;;;;;;;4995505;28;20085;-82
2023/10/29 09:13:55;;;;;;;0.20;0.10;;;;;;;;;;4997832;28;20992;-85
2023/10/29 09:16:21;;;;;;;0.20;0.00;;;;;;;;;;5005466;28;20042;-83
2023/10/29 09:18:47;;;;;;;0.20;0.08;;;;;;;;;;5010217;28;20128;-83
2023/10/29 09:21:14;;;;;;;0.20;0.00;;;;;;;;;;4991446;28;20045;-82
2023/10/29 09:23:40;;;;;;;0.20;0.00;;;;;;;;;;4999211;28;20099;-86
2023/10/29 09:26:07;;;;;;;0.20;0.00;;;;;;;;;;4990691;28;20045;-84
2023/10/29 09:28:33;;;;;;;0.20;0.00;;;;;;;;;;5000402;28;20046;-84
2023/10/29 09:30:59;;;;;;;0.20;0.00;;;;;;;;;;4988212;28;20325;-83
2023/10/29 09:33:25;;;;;;;0.20;0.10;;;;;;;;;;4986844;28;20045;-86
2023/10/29 09:35:51;;;;;;;0.20;0.20;;;;;;;;;;4997532;28;20044;-83
2023/10/29 09:38:20;;;;;;;0.20;0.00;;;;;;;;;;5002323;28;20049;-82
2023/10/29 09:40:46;;;;;;;0.40;0.40;;;;;;;;;;5002969;28;20045;-85
2023/10/29 09:43:14;;;;;;;0.20;0.00;;;;;;;;;;5004377;28;20509;-83
2023/10/29 09:45:45;;;;;;;0.20;0.03;;;;;;;;;;5006388;28;20073;-85
2023/10/29 09:48:11;;;;;;;0.20;0.00;;;;;;;;;;4990148;28;20037;-83
2023/10/29 09:50:37;;;;;;;0.20;0.00;;;;;;;;;;4999577;28;20037;-85
2023/10/29 09:53:03;;;;;;;0.20;0.10;;;;;;;;;;4987822;28;20034;-83
2023/10/29 09:55:30;;;;;;;0.20;0.10;;;;;;;;;;5000325;28;20597;-85
2023/10/29 09:57:56;;;;;;;0.20;0.00;;;;;;;;;;5000795;28;20048;-86
2023/10/29 10:00:22;;;;;;;0.20;0.00;;;;;;;;;;4987007;28;20045;-85
2023/10/29 10:02:51;;;;;;;0.20;0.00;;;;;;;;;;4981522;28;20048;-83
2023/10/29 10:05:21;;;;;;;0.20;0.10;;;;;;;;;;4978760;28;20442;-84
2023/10/29 10:07:50;;;;;;;6.07;1.38;;;;;;;;;;5004634;28;20114;-83
2023/10/29 10:10:20;;;;;;;0.20;0.10;;;;;;;;;;4989567;28;20571;-85
2023/10/29 10:12:53;;;;;;;0.20;0.00;;;;;;;;;;4984941;28;20048;-83
2023/10/29 10:15:20;;;;;;;0.28;0.28;;;;;;;;;;4988457;28;20373;-84
2023/10/29 10:17:48;;;;;;;0.20;0.00;;;;;;;;;;5001412;28;20041;-83
2023/10/29 10:20:14;;;;;;;0.30;0.25;;;;;;;;;;4989588;28;20505;-84
2023/10/29 10:22:43;;;;;;;0.20;0.10;;;;;;;;;;4998184;28;20052;-80
2023/10/29 10:25:16;;;;;;;0.20;0.00;;;;;;;;;;4989000;28;20050;-82
2023/10/29 10:27:52;;;;;;;0.20;0.00;;;;;;;;;;5003946;28;20033;-81
2023/10/29 10:30:34;;;;;;;0.20;0.00;;;;;;;;;;4988770;28;20505;-85
2023/10/29 10:33:10;;;;;;;0.22;0.13;;;;;;;;;;5000472;28;20041;-86
2023/10/29 10:35:43;;;;;;;0.20;0.05;;;;;;;;;;4998657;28;20569;-85
2023/10/29 10:38:12;;;;;;;0.20;0.08;;;;;;;;;;4989593;28;20040;-86
2023/10/29 10:40:38;;;;;;;0.20;0.10;;;;;;;;;;5006581;28;20045;-83
2023/10/29 10:43:05;;;;;;;0.20;0.10;;;;;;;;;;4993186;28;20125;-84
2023/10/29 10:45:32;;;;;;;0.20;0.00;;;;;;;;;;5028581;28;20115;-84
2023/10/29 10:48:03;;;;;;;0.20;0.10;;;;;;;;;;4992562;28;20547;-85
2023/10/29 10:50:36;;;;;;;0.20;0.10;;;;;;;;;;4992448;28;20045;-85
2023/10/29 10:53:03;;;;;;;0.20;0.10;;;;;;;;;;4992744;28;20049;-84
2023/10/29 10:55:30;;;;;;;0.20;0.00;;;;;;;;;;5023408;28;20045;-84
2023/10/29 10:57:56;;;;;;;0.40;0.10;;;;;;;;;;5028874;28;20049;-84
2023/10/29 11:00:22;;;;;;;0.20;0.10;;;;;;;;;;4991563;28;20112;-84
2023/10/29 11:02:50;;;;;;;0.20;0.10;;;;;;;;;;5003729;28;20524;-82
2023/10/29 11:05:17;;;;;;;0.20;0.10;;;;;;;;;;4992644;28;20044;-85
2023/10/29 11:07:44;;;;;;;0.20;0.05;;;;;;;;;;5011202;28;20037;-84
2023/10/29 11:10:14;;;;;;;0.20;0.00;;;;;;;;;;4989224;28;20502;-84
2023/10/29 11:12:40;;;;;;;0.20;0.10;;;;;;;;;;4987989;28;20494;-85
2023/10/29 11:15:13;;;;;;;3.60;0.28;;;;;;;;;;5005499;28;20128;-84
2023/10/29 11:18:00;;;;;;;0.20;0.00;;;;;;;;;;4993461;28;20041;-84
2023/10/29 11:23:07;;;;;;;0.20;0.03;;;;;;;;;;5003776;28;20053;-81
2023/10/29 11:25:34;;;;;;;0.20;0.00;;;;;;;;;;4999991;28;20417;-85
2023/10/29 11:28:01;;;;;;;0.20;0.00;;;;;;;;;;5003838;28;20038;-84
2023/10/29 11:30:28;;;;;;;0.20;0.03;;;;;;;;;;5000385;28;20038;-83
2023/10/29 11:33:06;;;;;;;0.20;0.10;;;;;;;;;;5001579;28;20036;-82
2023/10/29 11:35:33;;;;;;;1.48;0.80;;;;;;;;;;4993822;28;20034;-85
2023/10/29 11:38:03;;;;;;;0.20;0.10;;;;;;;;;;4991151;28;20060;-86
2023/10/29 11:40:30;;;;;;;0.20;0.10;;;;;;;;;;5041735;22;20083;-85
2023/10/29 11:43:22;;;;;;;0.20;0.00;;;;;;;;;;4984088;28;20037;-85
2023/10/29 11:45:55;;;;;;;0.20;0.00;;;;;;;;;;4994477;28;20067;-83
2023/10/29 11:48:31;;;;;;;0.20;0.00;;;;;;;;;;4988395;28;20034;-82
2023/10/29 11:51:12;;;;;;;0.32;0.32;;;;;;;;;;4984441;28;20037;-85
2023/10/29 11:53:45;;;;;;;0.20;0.00;;;;;;;;;;5004750;28;20104;-83
2023/10/29 11:56:12;;;;;;;0.20;0.10;;;;;;;;;;4990020;28;20084;-83
2023/10/29 11:58:44;;;;;;;0.20;0.00;;;;;;;;;;4990559;28;20417;-84
2023/10/29 12:01:10;;;;;;;0.25;0.25;;;;;;;;;;5018478;22;20432;-81
2023/10/29 12:06:42;;;;;;;0.20;0.10;;;;;;;;;;5024867;28;20045;-85
2023/10/29 12:09:22;;;;;;;0.20;0.10;;;;;;;;;;5007931;28;20041;-83
2023/10/29 12:11:52;;;;;;;0.20;0.00;;;;;;;;;;5016853;28;20490;-84
2023/10/29 12:14:38;;;;;;;0.20;0.00;;;;;;;;;;5011197;28;20596;-83
2023/10/29 12:17:05;;;;;;;0.20;0.00;;;;;;;;;;5008075;28;20537;-83
2023/10/29 12:19:35;;;;;;;0.40;0.30;;;;;;;;;;5012918;28;20088;-83
2023/10/29 12:22:02;;;;;;;0.22;0.10;;;;;;;;;;5009666;28;20037;-81
2023/10/29 12:24:28;;;;;;;0.20;0.00;;;;;;;;;;4993695;28;20529;-86
2023/10/29 12:26:54;;;;;;;0.20;0.10;;;;;;;;;;5008793;28;20050;-84
2023/10/29 12:29:20;;;;;;;0.20;0.00;;;;;;;;;;5006701;28;20064;-82
2023/10/29 12:31:47;;;;;;;0.20;0.00;;;;;;;;;;4996393;28;20045;-87
2023/10/29 12:34:17;;;;;;;0.20;0.00;;;;;;;;;;5010494;28;20040;-84
2023/10/29 12:36:48;;;;;;;0.20;0.00;;;;;;;;;;4993790;28;20033;-82
2023/10/29 12:39:15;;;;;;;0.20;0.00;;;;;;;;;;5008479;28;20057;-83
2023/10/29 12:41:41;;;;;;;0.20;0.00;;;;;;;;;;5002378;28;20037;-85
2023/10/29 12:44:21;;;;;;;0.20;0.00;;;;;;;;;;5007770;28;20052;-88
2023/10/29 12:46:49;;;;;;;2.30;0.85;;;;;;;;;;4996618;28;20698;-86
2023/10/29 12:49:39;;;;;;;0.20;0.00;;;;;;;;;;5002143;28;20080;-88
2023/10/29 12:52:19;;;;;;;0.20;0.00;;;;;;;;;;5007028;28;20041;-86
2023/10/29 12:54:50;;;;;;;0.20;0.00;;;;;;;;;;5005618;28;20525;-87
2023/10/29 12:57:30;;;;;;;0.20;0.00;;;;;;;;;;5006506;28;20057;-87
2023/10/29 12:59:59;;;;;;;0.20;0.00;;;;;;;;;;5006023;28;20041;-86
2023/10/29 13:02:36;;;;;;;0.20;0.10;;;;;;;;;;5002584;28;20049;-84
2023/10/29 13:05:20;;;;;;;0.20;0.00;;;;;;;;;;5008921;28;20095;-87
2023/10/29 13:08:05;;;;;;;0.20;0.10;;;;;;;;;;5008274;28;20072;-87
2023/10/29 13:10:37;;;;;;;0.20;0.00;;;;;;;;;;5006296;28;20398;-86
2023/10/29 13:13:10;;;;;;;0.20;0.00;;;;;;;;;;5011340;28;20053;-86
2023/10/29 13:15:45;;;;;;;0.20;0.17;;;;;;;;;;5005319;28;20091;-86
2023/10/29 13:18:27;;;;;;;0.28;0.28;;;;;;;;;;5021508;28;20049;-87
2023/10/29 13:21:16;;;;;;;0.20;0.10;;;;;;;;;;4993133;28;20057;-86
2023/10/29 13:23:55;;;;;;;;;;;;;;;;;;;;;
2023/10/29 13:26:40;;;;;;;;;;;;;;;;;;;;;
2023/10/29 13:29:07;;;;;;;0.20;0.03;;;;;;;;;;5008450;28;20418;-88
2023/10/29 13:31:45;;;;;;;0.20;0.00;;;;;;;;;;5006169;28;20520;-88
2023/10/29 13:34:17;;;;;;;0.20;0.00;;;;;;;;;;4992233;28;20053;-88
2023/10/29 13:39:43;;;;;;;0.20;0.05;;;;;;;;;;5007027;28;20516;-85
2023/10/29 13:42:14;;;;;;;0.20;0.00;;;;;;;;;;4995047;28;20080;-86
2023/10/29 13:44:51;;;;;;;0.20;0.10;;;;;;;;;;4996526;28;20494;-81
2023/10/29 13:47:20;;;;;;;0.20;0.03;;;;;;;;;;5010715;28;20052;-84
2023/10/29 13:50:03;;;;;;;0.20;0.05;;;;;;;;;;4994008;28;20069;-89
2023/10/29 13:52:41;;;;;;;0.20;0.10;;;;;;;;;;5009825;28;20049;-86
2023/10/29 13:55:23;;;;;;;0.20;0.00;;;;;;;;;;5010466;28;20049;-82
2023/10/29 13:57:49;;;;;;;0.20;0.08;;;;;;;;;;5012731;28;20041;-87
2023/10/29 14:00:25;;;;;;;0.20;0.08;;;;;;;;;;5006151;28;20038;-86
2023/10/29 14:02:55;;;;;;;0.20;0.00;;;;;;;;;;4995944;28;20068;-87
2023/10/29 14:05:32;;;;;;;0.20;0.00;;;;;;;;;;5009776;28;20041;-85
2023/10/29 14:08:12;;;;;;;0.20;0.00;;;;;;;;;;5004667;28;20041;-86
2023/10/29 14:10:41;;;;;;;0.20;0.10;;;;;;;;;;4997895;28;20096;-86
2023/10/29 14:13:07;;;;;;;0.20;0.03;;;;;;;;;;4992673;28;20060;-88
2023/10/29 14:15:39;;;;;;;0.20;0.00;;;;;;;;;;4994046;28;20053;-86
2023/10/29 14:18:14;;;;;;;0.20;0.00;;;;;;;;;;5009443;28;20064;-87
2023/10/29 14:20:55;;;;;;;0.20;0.00;;;;;;;;;;4996261;28;20046;-88
2023/10/29 14:23:30;;;;;;;0.20;0.10;;;;;;;;;;4997483;28;20041;-85
2023/10/29 14:26:02;;;;;;;0.20;0.03;;;;;;;;;;5025437;28;20726;-84
2023/10/29 14:28:28;;;;;;;0.40;0.30;;;;;;;;;;5014498;28;20521;-87
2023/10/29 14:31:01;;;;;;;0.20;0.10;;;;;;;;;;5015254;28;20459;-86
2023/10/29 14:33:36;;;;;;;0.20;0.10;;;;;;;;;;5014939;28;20294;-84
2023/10/29 14:36:17;;;;;;;0.20;0.10;;;;;;;;;;5011541;28;20049;-86
2023/10/29 14:39:03;;;;;;;0.20;0.20;;;;;;;;;;4991733;28;20045;-83
2023/10/29 14:41:29;;;;;;;0.20;0.10;;;;;;;;;;5004284;28;20132;-83
2023/10/29 14:43:58;;;;;;;0.20;0.10;;;;;;;;;;5013440;28;20048;-85
2023/10/29 14:46:25;;;;;;;0.20;0.00;;;;;;;;;;5011474;28;20047;-84
2023/10/29 14:48:54;;;;;;;0.20;0.05;;;;;;;;;;4997061;28;20040;-87
2023/10/29 14:51:26;;;;;;;0.20;0.10;;;;;;;;;;5011023;28;20049;-88
2023/10/29 14:53:52;;;;;;;0.20;0.03;;;;;;;;;;4997822;28;20041;-85
2023/10/29 14:56:21;;;;;;;0.20;0.00;;;;;;;;;;5012967;28;20049;-87
2023/10/29 14:58:49;;;;;;;0.20;0.10;;;;;;;;;;5001255;28;20049;-85
2023/10/29 15:01:25;;;;;;;0.20;0.00;;;;;;;;;;5014556;28;20060;-86
2023/10/29 15:03:57;;;;;;;0.20;0.10;;;;;;;;;;4987284;28;20504;-86
2023/10/29 15:06:26;;;;;;;0.20;0.00;;;;;;;;;;5017583;28;20029;-86
2023/10/29 15:09:03;;;;;;;0.20;0.00;;;;;;;;;;5020685;28;20548;-85
2023/10/29 15:11:29;;;;;;;0.20;0.00;;;;;;;;;;5014657;28;20104;-85
2023/10/29 15:13:57;;;;;;;0.20;0.10;;;;;;;;;;5016040;28;20090;-85
2023/10/29 15:16:26;;;;;;;0.20;0.10;;;;;;;;;;5032519;28;20063;-86
2023/10/29 15:18:52;;;;;;;0.20;0.00;;;;;;;;;;5034757;28;20523;-85
2023/10/29 15:21:40;;;;;;;0.20;0.00;;;;;;;;;;5048537;28;20041;-85
2023/10/29 15:24:07;;;;;;;0.20;0.00;;;;;;;;;;5028460;28;20036;-84
2023/10/29 15:26:39;;;;;;;0.20;0.00;;;;;;;;;;5013992;28;20048;-87
2023/10/29 15:29:10;;;;;;;0.20;0.00;;;;;;;;;;5017154;28;20037;-87
2023/10/29 15:31:42;;;;;;;0.20;0.00;;;;;;;;;;5027265;28;20059;-87
2023/10/29 15:34:08;;;;;;;0.20;0.00;;;;;;;;;;5023123;28;20041;-83